Auxvasse, Missouri
Current Conditions -  °F | °C
As of 8:23 PM on Saturday 22 Nov 2014 (Local Time) from KCOU Reporting Station
Scattered Clouds Scattered Clouds  
Wind Chill: 53°   Ceiling: Unl
Heat Index: 53°   Visibility: 10mi
Dew Point: 50°   Wind: 14mph
Humidity: 89%   Direction: 170°S
Pressure: 29.84"   Gusts: NA
Location:  39.02°N, 91.9°W
Report Text: KCOU 230223Z AUTO 17012KT 10SM SCT013 12/10 A2984 RMK AO2 T01170100 $
Loading
Personal Weather Stations






























Interactive Weather Map New forecast layout! Learn more

10-Day Weather Forecast

Advertisements
Track Severe Weather on mobile